sensor_id;sensor_type;location;lat;lon;timestamp;pressure;altitude;pressure_sealevel;temperature;humidity
39793;BME280;26080;42.264;24.536;2023-11-21T00:01:58;99118.84;;;5.28;100.00
39793;BME280;26080;42.264;24.536;2023-11-21T00:04:24;99128.53;;;5.23;100.00
39793;BME280;26080;42.264;24.536;2023-11-21T00:06:52;99113.16;;;5.15;100.00
39793;BME280;26080;42.264;24.536;2023-11-21T00:09:18;99113.19;;;5.14;100.00
39793;BME280;26080;42.264;24.536;2023-11-21T00:11:45;99121.00;;;5.14;100.00
39793;BME280;26080;42.264;24.536;2023-11-21T00:14:13;99113.97;;;5.17;100.00
39793;BME280;26080;42.264;24.536;2023-11-21T00:16:41;99115.44;;;5.26;100.00
39793;BME280;26080;42.264;24.536;2023-11-21T00:19:06;99110.16;;;5.29;100.00
39793;BME280;26080;42.264;24.536;2023-11-21T00:21:31;99105.72;;;5.32;100.00
39793;BME280;26080;42.264;24.536;2023-11-21T00:23:57;99096.19;;;5.33;100.00
39793;BME280;26080;42.264;24.536;2023-11-21T00:26:22;99098.88;;;5.30;100.00
39793;BME280;26080;42.264;24.536;2023-11-21T00:28:49;99102.28;;;5.32;100.00
39793;BME280;26080;42.264;24.536;2023-11-21T00:31:15;99098.78;;;5.33;100.00
39793;BME280;26080;42.264;24.536;2023-11-21T00:33:41;99101.38;;;5.33;100.00
39793;BME280;26080;42.264;24.536;2023-11-21T00:36:06;99096.22;;;5.31;100.00
39793;BME280;26080;42.264;24.536;2023-11-21T00:38:35;99102.38;;;5.29;100.00
39793;BME280;26080;42.264;24.536;2023-11-21T00:41:00;99097.22;;;5.27;100.00
39793;BME280;26080;42.264;24.536;2023-11-21T00:43:26;99097.22;;;5.27;100.00
39793;BME280;26080;42.264;24.536;2023-11-21T00:45:51;99109.91;;;5.38;100.00
39793;BME280;26080;42.264;24.536;2023-11-21T00:48:17;99113.91;;;5.50;100.00
39793;BME280;26080;42.264;24.536;2023-11-21T00:50:43;99116.44;;;5.51;100.00
39793;BME280;26080;42.264;24.536;2023-11-21T00:53:09;99127.09;;;5.42;100.00
39793;BME280;26080;42.264;24.536;2023-11-21T00:55:34;99078.56;;;5.15;100.00
39793;BME280;26080;42.264;24.536;2023-11-21T00:58:00;99111.88;;;5.30;100.00
39793;BME280;26080;42.264;24.536;2023-11-21T01:00:28;99112.22;;;5.18;100.00
39793;BME280;26080;42.264;24.536;2023-11-21T01:02:53;99107.31;;;5.09;100.00
39793;BME280;26080;42.264;24.536;2023-11-21T01:05:19;99114.44;;;5.00;100.00
39793;BME280;26080;42.264;24.536;2023-11-21T01:07:45;99114.69;;;4.91;100.00
39793;BME280;26080;42.264;24.536;2023-11-21T01:10:10;99120.81;;;4.89;100.00
39793;BME280;26080;42.264;24.536;2023-11-21T01:12:37;99078.53;;;4.85;100.00
39793;BME280;26080;42.264;24.536;2023-11-21T01:15:04;99111.19;;;4.94;100.00
39793;BME280;26080;42.264;24.536;2023-11-21T01:17:32;99104.47;;;4.85;100.00
39793;BME280;26080;42.264;24.536;2023-11-21T01:19:59;99106.38;;;4.79;100.00
39793;BME280;26080;42.264;24.536;2023-11-21T01:22:25;99104.84;;;4.71;100.00
39793;BME280;26080;42.264;24.536;2023-11-21T01:24:52;99112.63;;;4.71;100.00
39793;BME280;26080;42.264;24.536;2023-11-21T01:27:18;99113.53;;;4.70;100.00
39793;BME280;26080;42.264;24.536;2023-11-21T01:29:44;99112.03;;;4.94;100.00
39793;BME280;26080;42.264;24.536;2023-11-21T01:32:10;99108.88;;;4.83;100.00
39793;BME280;26080;42.264;24.536;2023-11-21T01:34:36;99101.22;;;4.77;100.00
39793;BME280;26080;42.264;24.536;2023-11-21T01:37:02;99100.44;;;4.75;100.00
39793;BME280;26080;42.264;24.536;2023-11-21T01:39:29;99099.38;;;4.82;100.00
39793;BME280;26080;42.264;24.536;2023-11-21T01:41:55;99106.38;;;4.79;100.00
39793;BME280;26080;42.264;24.536;2023-11-21T01:44:20;99107.97;;;4.84;100.00
39793;BME280;26080;42.264;24.536;2023-11-21T01:46:46;99104.25;;;4.94;100.00
39793;BME280;26080;42.264;24.536;2023-11-21T01:49:14;99092.31;;;4.87;100.00
39793;BME280;26080;42.264;24.536;2023-11-21T01:51:41;99068.28;;;4.48;100.00
39793;BME280;26080;42.264;24.536;2023-11-21T01:54:09;99092.97;;;4.63;100.00
39793;BME280;26080;42.264;24.536;2023-11-21T01:56:34;99096.94;;;4.43;100.00
39793;BME280;26080;42.264;24.536;2023-11-21T01:59:00;99084.78;;;4.45;100.00
39793;BME280;26080;42.264;24.536;2023-11-21T02:01:25;99086.66;;;4.40;100.00
39793;BME280;26080;42.264;24.536;2023-11-21T02:03:51;99086.78;;;4.34;100.00
39793;BME280;26080;42.264;24.536;2023-11-21T02:06:17;99058.84;;;4.13;100.00
39793;BME280;26080;42.264;24.536;2023-11-21T02:08:43;99082.59;;;4.30;100.00
39793;BME280;26080;42.264;24.536;2023-11-21T02:11:10;99083.41;;;4.32;100.00
39793;BME280;26080;42.264;24.536;2023-11-21T02:13:38;99075.22;;;4.47;100.00
39793;BME280;26080;42.264;24.536;2023-11-21T02:16:09;99086.84;;;4.65;100.00
39793;BME280;26080;42.264;24.536;2023-11-21T02:18:34;99087.88;;;4.60;100.00
39793;BME280;26080;42.264;24.536;2023-11-21T02:21:04;99082.31;;;4.41;100.00
39793;BME280;26080;42.264;24.536;2023-11-21T02:23:29;99085.28;;;4.27;100.00
39793;BME280;26080;42.264;24.536;2023-11-21T02:25:55;99081.16;;;4.19;100.00
39793;BME280;26080;42.264;24.536;2023-11-21T02:28:20;99079.63;;;4.11;100.00
39793;BME280;26080;42.264;24.536;2023-11-21T02:30:51;99076.81;;;4.19;100.00
39793;BME280;26080;42.264;24.536;2023-11-21T02:33:21;99079.72;;;4.07;100.00
39793;BME280;26080;42.264;24.536;2023-11-21T02:35:47;99080.59;;;4.06;100.00
39793;BME280;26080;42.264;24.536;2023-11-21T02:38:12;99085.06;;;4.01;100.00
39793;BME280;26080;42.264;24.536;2023-11-21T02:40:37;99083.06;;;4.10;100.00
39793;BME280;26080;42.264;24.536;2023-11-21T02:43:03;99084.91;;;4.07;100.00
39793;BME280;26080;42.264;24.536;2023-11-21T02:45:31;99063.69;;;3.91;100.00
39793;BME280;26080;42.264;24.536;2023-11-21T02:47:57;99085.34;;;3.89;100.00
39793;BME280;26080;42.264;24.536;2023-11-21T02:50:22;99080.75;;;4.00;100.00
39793;BME280;26080;42.264;24.536;2023-11-21T02:52:48;99077.19;;;4.04;100.00
39793;BME280;26080;42.264;24.536;2023-11-21T02:55:13;99070.31;;;4.03;100.00
39793;BME280;26080;42.264;24.536;2023-11-21T02:57:38;99077.38;;;3.98;100.00
39793;BME280;26080;42.264;24.536;2023-11-21T03:00:04;99069.72;;;3.92;100.00
39793;BME280;26080;42.264;24.536;2023-11-21T03:02:33;99072.47;;;3.85;100.00
39793;BME280;26080;42.264;24.536;2023-11-21T03:04:58;99080.50;;;3.75;100.00
39793;BME280;26080;42.264;24.536;2023-11-21T03:07:24;99089.47;;;3.60;100.00
39793;BME280;26080;42.264;24.536;2023-11-21T03:09:50;99092.97;;;3.58;100.00
39793;BME280;26080;42.264;24.536;2023-11-21T03:12:15;99087.09;;;3.49;100.00
39793;BME280;26080;42.264;24.536;2023-11-21T03:14:41;99087.88;;;3.53;100.00
39793;BME280;26080;42.264;24.536;2023-11-21T03:17:06;99094.81;;;3.52;100.00
39793;BME280;26080;42.264;24.536;2023-11-21T03:19:32;99072.75;;;3.35;100.00
39793;BME280;26080;42.264;24.536;2023-11-21T03:21:58;99097.34;;;3.54;100.00
39793;BME280;26080;42.264;24.536;2023-11-21T03:24:24;99094.75;;;3.54;100.00
39793;BME280;26080;42.264;24.536;2023-11-21T03:26:49;99088.84;;;3.49;100.00
39793;BME280;26080;42.264;24.536;2023-11-21T03:29:16;99106.00;;;3.53;100.00
39793;BME280;26080;42.264;24.536;2023-11-21T03:31:41;99114.91;;;3.40;100.00
39793;BME280;26080;42.264;24.536;2023-11-21T03:34:14;99116.94;;;3.25;100.00
39793;BME280;26080;42.264;24.536;2023-11-21T03:36:40;99124.72;;;3.25;100.00
39793;BME280;26080;42.264;24.536;2023-11-21T03:39:05;99123.16;;;3.18;100.00
39793;BME280;26080;42.264;24.536;2023-11-21T03:41:30;99125.19;;;3.03;100.00
39793;BME280;26080;42.264;24.536;2023-11-21T03:43:56;99119.28;;;2.96;100.00
39793;BME280;26080;42.264;24.536;2023-11-21T03:46:21;99113.72;;;3.14;100.00
39793;BME280;26080;42.264;24.536;2023-11-21T03:48:47;99122.25;;;3.19;100.00
39793;BME280;26080;42.264;24.536;2023-11-21T03:51:12;99127.47;;;3.18;100.00
39793;BME280;26080;42.264;24.536;2023-11-21T03:53:37;99136.31;;;3.06;100.00
39793;BME280;26080;42.264;24.536;2023-11-21T03:56:03;99135.78;;;2.90;100.00
39793;BME280;26080;42.264;24.536;2023-11-21T03:58:29;99144.59;;;2.80;100.00
39793;BME280;26080;42.264;24.536;2023-11-21T04:00:54;99146.47;;;2.71;100.00
39793;BME280;26080;42.264;24.536;2023-11-21T04:03:20;99134.38;;;2.73;100.00
39793;BME280;26080;42.264;24.536;2023-11-21T04:05:45;99137.84;;;2.72;100.00
39793;BME280;26080;42.264;24.536;2023-11-21T04:08:11;99119.63;;;2.78;100.00
39793;BME280;26080;42.264;24.536;2023-11-21T04:10:36;99114.41;;;2.81;100.00
39793;BME280;26080;42.264;24.536;2023-11-21T04:13:01;99114.34;;;2.84;100.00
39793;BME280;26080;42.264;24.536;2023-11-21T04:15:27;99120.47;;;2.78;100.00
39793;BME280;26080;42.264;24.536;2023-11-21T04:17:52;99122.31;;;2.72;100.00
39793;BME280;26080;42.264;24.536;2023-11-21T04:20:18;99130.19;;;2.65;100.00
39793;BME280;26080;42.264;24.536;2023-11-21T04:22:44;99136.19;;;2.67;100.00
39793;BME280;26080;42.264;24.536;2023-11-21T04:25:10;99142.97;;;2.75;100.00
39793;BME280;26080;42.264;24.536;2023-11-21T04:27:37;99144.94;;;2.62;100.00
39793;BME280;26080;42.264;24.536;2023-11-21T04:30:03;99144.50;;;2.37;100.00
39793;BME280;26080;42.264;24.536;2023-11-21T04:32:29;99143.94;;;2.17;100.00
39793;BME280;26080;42.264;24.536;2023-11-21T04:34:54;99146.91;;;1.94;100.00
39793;BME280;26080;42.264;24.536;2023-11-21T04:37:20;99149.63;;;1.83;100.00
39793;BME280;26080;42.264;24.536;2023-11-21T04:39:45;99152.22;;;1.83;100.00
39793;BME280;26080;42.264;24.536;2023-11-21T04:42:10;99151.47;;;1.75;100.00
39793;BME280;26080;42.264;24.536;2023-11-21T04:44:37;99151.44;;;1.76;100.00
39793;BME280;26080;42.264;24.536;2023-11-21T04:52:16;99141.97;;;1.77;100.00
39793;BME280;26080;42.264;24.536;2023-11-21T04:54:41;99139.44;;;1.74;100.00
39793;BME280;26080;42.264;24.536;2023-11-21T04:57:08;99150.75;;;1.64;100.00
39793;BME280;26080;42.264;24.536;2023-11-21T04:59:34;99145.56;;;1.67;100.00
39793;BME280;26080;42.264;24.536;2023-11-21T05:01:59;99143.16;;;1.55;100.00
39793;BME280;26080;42.264;24.536;2023-11-21T05:04:28;99143.97;;;1.57;100.00
39793;BME280;26080;42.264;24.536;2023-11-21T05:06:53;99150.94;;;1.52;100.00
39793;BME280;26080;42.264;24.536;2023-11-21T05:09:19;99126.19;;;1.35;100.00
39793;BME280;26080;42.264;24.536;2023-11-21T05:11:44;99143.19;;;1.53;100.00
39793;BME280;26080;42.264;24.536;2023-11-21T05:14:10;99139.75;;;1.53;100.00
39793;BME280;26080;42.264;24.536;2023-11-21T05:16:35;99146.47;;;1.63;100.00
39793;BME280;26080;42.264;24.536;2023-11-21T05:19:01;99137.81;;;1.68;100.00
39793;BME280;26080;42.264;24.536;2023-11-21T05:21:27;99100.28;;;1.43;100.00
39793;BME280;26080;42.264;24.536;2023-11-21T05:23:53;99153.19;;;1.74;100.00
39793;BME280;26080;42.264;24.536;2023-11-21T05:26:18;99148.81;;;1.81;100.00
39793;BME280;26080;42.264;24.536;2023-11-21T05:28:44;99148.72;;;1.86;100.00
39793;BME280;26080;42.264;24.536;2023-11-21T05:31:09;99154.78;;;1.85;100.00
39793;BME280;26080;42.264;24.536;2023-11-21T05:33:36;99143.47;;;1.92;100.00
39793;BME280;26080;42.264;24.536;2023-11-21T05:36:01;99151.06;;;2.02;100.00
39793;BME280;26080;42.264;24.536;2023-11-21T05:38:27;99147.59;;;2.03;100.00
39793;BME280;26080;42.264;24.536;2023-11-21T05:40:52;99162.22;;;2.04;100.00
39793;BME280;26080;42.264;24.536;2023-11-21T05:43:17;99123.69;;;1.91;100.00
39793;BME280;26080;42.264;24.536;2023-11-21T05:45:43;99151.03;;;2.04;100.00
39793;BME280;26080;42.264;24.536;2023-11-21T05:48:08;99144.16;;;2.03;100.00
39793;BME280;26080;42.264;24.536;2023-11-21T05:50:34;99160.25;;;2.22;100.00
39793;BME280;26080;42.264;24.536;2023-11-21T05:52:59;99149.56;;;2.42;100.00
39793;BME280;26080;42.264;24.536;2023-11-21T05:55:25;99140.16;;;2.39;100.00
39793;BME280;26080;42.264;24.536;2023-11-21T05:57:51;99140.00;;;2.48;100.00
39793;BME280;26080;42.264;24.536;2023-11-21T06:00:17;99145.22;;;2.44;100.00
39793;BME280;26080;42.264;24.536;2023-11-21T06:02:49;99149.25;;;2.61;100.00
39793;BME280;26080;42.264;24.536;2023-11-21T06:05:25;99145.88;;;2.56;100.00
39793;BME280;26080;42.264;24.536;2023-11-21T06:07:51;99142.38;;;2.60;100.00
39793;BME280;26080;42.264;24.536;2023-11-21T06:10:20;99138.94;;;2.58;100.00
39793;BME280;26080;42.264;24.536;2023-11-21T06:12:46;99165.97;;;2.90;100.00
39793;BME280;26080;42.264;24.536;2023-11-21T06:15:12;99162.97;;;3.11;100.00
39793;BME280;26080;42.264;24.536;2023-11-21T06:17:41;99134.72;;;2.99;100.00
39793;BME280;26080;42.264;24.536;2023-11-21T06:20:09;99166.94;;;3.27;100.00
39793;BME280;26080;42.264;24.536;2023-11-21T06:22:36;99171.72;;;3.47;100.00
39793;BME280;26080;42.264;24.536;2023-11-21T06:25:02;99167.22;;;3.57;100.00
39793;BME280;26080;42.264;24.536;2023-11-21T06:27:39;99172.09;;;3.71;100.00
39793;BME280;26080;42.264;24.536;2023-11-21T06:30:05;99171.84;;;3.81;100.00
39793;BME280;26080;42.264;24.536;2023-11-21T06:32:31;99174.16;;;3.94;100.00
39793;BME280;26080;42.264;24.536;2023-11-21T06:34:57;99173.13;;;4.02;100.00
39793;BME280;26080;42.264;24.536;2023-11-21T06:37:26;99165.47;;;4.33;100.00
39793;BME280;26080;42.264;24.536;2023-11-21T06:39:52;99160.25;;;4.35;100.00
39793;BME280;26080;42.264;24.536;2023-11-21T06:42:21;99161.09;;;4.35;100.00
39793;BME280;26080;42.264;24.536;2023-11-21T06:44:47;99155.91;;;4.35;100.00
39793;BME280;26080;42.264;24.536;2023-11-21T06:47:13;99162.50;;;4.49;100.00
39793;BME280;26080;42.264;24.536;2023-11-21T06:49:39;99137.94;;;4.29;100.00
39793;BME280;26080;42.264;24.536;2023-11-21T06:52:05;99171.84;;;4.56;100.00
39793;BME280;26080;42.264;24.536;2023-11-21T06:54:33;99163.63;;;4.72;100.00
39793;BME280;26080;42.264;24.536;2023-11-21T06:56:59;99169.25;;;4.88;100.00
39793;BME280;26080;42.264;24.536;2023-11-21T06:59:25;99170.88;;;4.94;100.00
39793;BME280;26080;42.264;24.536;2023-11-21T07:01:50;99168.94;;;5.00;100.00
39793;BME280;26080;42.264;24.536;2023-11-21T07:04:16;99156.81;;;5.01;100.00
39793;BME280;26080;42.264;24.536;2023-11-21T07:06:41;99163.13;;;5.23;100.00
39793;BME280;26080;42.264;24.536;2023-11-21T07:09:08;99164.34;;;5.41;100.00
39793;BME280;26080;42.264;24.536;2023-11-21T07:11:35;99164.00;;;5.53;100.00
39793;BME280;26080;42.264;24.536;2023-11-21T07:14:01;99156.91;;;5.58;100.00
39793;BME280;26080;42.264;24.536;2023-11-21T07:16:34;99157.66;;;5.63;100.00
39793;BME280;26080;42.264;24.536;2023-11-21T07:19:00;99149.41;;;5.79;100.00
39793;BME280;26080;42.264;24.536;2023-11-21T07:21:25;99155.00;;;5.94;100.00
39793;BME280;26080;42.264;24.536;2023-11-21T07:23:51;99154.91;;;5.98;100.00
39793;BME280;26080;42.264;24.536;2023-11-21T07:26:17;99152.88;;;6.07;100.00
39793;BME280;26080;42.264;24.536;2023-11-21T07:28:42;99153.88;;;6.30;100.00
39793;BME280;26080;42.264;24.536;2023-11-21T07:31:08;99154.16;;;6.48;100.00
39793;BME280;26080;42.264;24.536;2023-11-21T07:33:33;99147.22;;;6.74;100.00
39793;BME280;26080;42.264;24.536;2023-11-21T07:35:58;99150.25;;;6.87;100.00
39793;BME280;26080;42.264;24.536;2023-11-21T07:38:24;99159.34;;;7.00;100.00
39793;BME280;26080;42.264;24.536;2023-11-21T07:40:49;99153.00;;;7.07;100.00
39793;BME280;26080;42.264;24.536;2023-11-21T07:43:15;99150.97;;;7.15;100.00
39793;BME280;26080;42.264;24.536;2023-11-21T07:45:40;99141.41;;;7.16;100.00
39793;BME280;26080;42.264;24.536;2023-11-21T07:48:07;99164.91;;;7.37;100.00
39793;BME280;26080;42.264;24.536;2023-11-21T07:50:32;99160.22;;;7.47;100.00
39793;BME280;26080;42.264;24.536;2023-11-21T07:52:58;99165.78;;;7.61;100.00
39793;BME280;26080;42.264;24.536;2023-11-21T07:55:24;99163.94;;;7.63;100.00
39793;BME280;26080;42.264;24.536;2023-11-21T07:57:50;99153.19;;;7.72;100.00
39793;BME280;26080;42.264;24.536;2023-11-21T08:00:15;99163.28;;;7.82;100.00
39793;BME280;26080;42.264;24.536;2023-11-21T08:02:41;99160.47;;;7.86;100.00
39793;BME280;26080;42.264;24.536;2023-11-21T08:05:12;99158.66;;;7.88;100.00
39793;BME280;26080;42.264;24.536;2023-11-21T11:53:26;98821.69;;;13.25;76.75
39793;BME280;26080;42.264;24.536;2023-11-21T11:56:30;98818.34;;;13.23;75.46
39793;BME280;26080;42.264;24.536;2023-11-21T11:59:01;98826.25;;;13.09;74.59
39793;BME280;26080;42.264;24.536;2023-11-21T12:01:34;98831.91;;;13.03;76.45
39793;BME280;26080;42.264;24.536;2023-11-21T12:06:42;98830.66;;;12.82;77.61
39793;BME280;26080;42.264;24.536;2023-11-21T12:09:17;98832.13;;;12.86;76.34
39793;BME280;26080;42.264;24.536;2023-11-21T12:11:43;98839.66;;;12.92;75.54
39793;BME280;26080;42.264;24.536;2023-11-21T12:14:09;98837.75;;;12.94;74.95
39793;BME280;26080;42.264;24.536;2023-11-21T12:16:38;98839.84;;;12.89;75.30
39793;BME280;26080;42.264;24.536;2023-11-21T12:19:03;98841.25;;;12.80;75.70
39793;BME280;26080;42.264;24.536;2023-11-21T12:21:29;98844.09;;;12.77;76.65
39793;BME280;26080;42.264;24.536;2023-11-21T12:23:55;98833.28;;;12.82;76.71
39793;BME280;26080;42.264;24.536;2023-11-21T12:26:23;98832.03;;;12.87;76.37
39793;BME280;26080;42.264;24.536;2023-11-21T12:28:52;98837.72;;;13.08;76.25
39793;BME280;26080;42.264;24.536;2023-11-21T12:31:23;98830.94;;;13.18;76.58
39793;BME280;26080;42.264;24.536;2023-11-21T12:33:49;98820.75;;;13.26;75.86
39793;BME280;26080;42.264;24.536;2023-11-21T12:36:16;98811.75;;;13.30;75.62
39793;BME280;26080;42.264;24.536;2023-11-21T12:38:41;98792.06;;;13.36;75.24
39793;BME280;26080;42.264;24.536;2023-11-21T12:41:07;98789.47;;;13.49;75.08
39793;BME280;26080;42.264;24.536;2023-11-21T12:43:33;98786.84;;;13.49;76.22
39793;BME280;26080;42.264;24.536;2023-11-21T12:46:07;98779.88;;;13.48;76.59
39793;BME280;26080;42.264;24.536;2023-11-21T12:48:37;98794.50;;;13.52;77.29
39793;BME280;26080;42.264;24.536;2023-11-21T12:51:05;98805.75;;;13.41;77.99
39793;BME280;26080;42.264;24.536;2023-11-21T12:53:32;98813.22;;;13.34;78.28
39793;BME280;26080;42.264;24.536;2023-11-21T12:56:07;98812.38;;;13.34;78.47
39793;BME280;26080;42.264;24.536;2023-11-21T12:58:34;98809.84;;;13.32;77.68
39793;BME280;26080;42.264;24.536;2023-11-21T13:01:10;98805.22;;;13.36;77.37
39793;BME280;26080;42.264;24.536;2023-11-21T13:03:38;98807.75;;;13.38;77.01
39793;BME280;26080;42.264;24.536;2023-11-21T13:06:05;98795.72;;;13.21;78.35
39793;BME280;26080;42.264;24.536;2023-11-21T13:08:33;98815.69;;;13.23;79.39
39793;BME280;26080;42.264;24.536;2023-11-21T13:10:58;98793.97;;;13.07;78.88
39793;BME280;26080;42.264;24.536;2023-11-21T13:13:26;98811.81;;;13.29;78.22
39793;BME280;26080;42.264;24.536;2023-11-21T13:15:59;98811.59;;;13.19;78.17
39793;BME280;26080;42.264;24.536;2023-11-21T13:18:30;98820.44;;;13.18;79.06
39793;BME280;26080;42.264;24.536;2023-11-21T13:21:01;98822.66;;;13.24;79.27
39793;BME280;26080;42.264;24.536;2023-11-21T13:23:28;98789.59;;;12.93;79.44
39793;BME280;26080;42.264;24.536;2023-11-21T13:25:54;98840.59;;;13.18;80.20
39793;BME280;26080;42.264;24.536;2023-11-21T13:28:20;98831.97;;;13.16;79.74
39793;BME280;26080;42.264;24.536;2023-11-21T13:30:49;98826.44;;;13.06;80.60
39793;BME280;26080;42.264;24.536;2023-11-21T13:33:18;98806.16;;;13.08;79.36
39793;BME280;26080;42.264;24.536;2023-11-21T13:35:47;98817.09;;;13.15;79.62
39793;BME280;26080;42.264;24.536;2023-11-21T13:38:16;98801.00;;;13.07;79.80
39793;BME280;26080;42.264;24.536;2023-11-21T13:40:52;98790.13;;;12.98;80.56
39793;BME280;26080;42.264;24.536;2023-11-21T13:43:21;98806.56;;;13.02;81.42
39793;BME280;26080;42.264;24.536;2023-11-21T13:45:48;98803.19;;;13.00;81.57
39793;BME280;26080;42.264;24.536;2023-11-21T13:48:37;98805.00;;;13.12;78.97
39793;BME280;26080;42.264;24.536;2023-11-21T13:51:08;98796.06;;;13.15;78.69
39793;BME280;26080;42.264;24.536;2023-11-21T13:53:51;98791.59;;;13.17;78.76
39793;BME280;26080;42.264;24.536;2023-11-21T13:56:18;98766.19;;;13.03;77.10
39793;BME280;26080;42.264;24.536;2023-11-21T13:58:52;98781.34;;;13.12;77.82
39793;BME280;26080;42.264;24.536;2023-11-21T14:01:18;98790.50;;;13.07;79.43
39793;BME280;26080;42.264;24.536;2023-11-21T14:03:59;98801.81;;;12.94;80.33
39793;BME280;26080;42.264;24.536;2023-11-21T14:06:34;98811.09;;;12.86;81.95
39793;BME280;26080;42.264;24.536;2023-11-21T14:09:07;98810.16;;;12.87;81.77
39793;BME280;26080;42.264;24.536;2023-11-21T14:11:33;98812.66;;;12.75;82.34
39793;BME280;26080;42.264;24.536;2023-11-21T14:14:02;98823.34;;;12.72;82.40
39793;BME280;26080;42.264;24.536;2023-11-21T14:16:28;98822.50;;;12.72;82.38
39793;BME280;26080;42.264;24.536;2023-11-21T14:18:53;98821.97;;;12.67;82.33
39793;BME280;26080;42.264;24.536;2023-11-21T14:21:26;98819.06;;;12.57;83.68
39793;BME280;26080;42.264;24.536;2023-11-21T14:23:52;98821.50;;;12.46;84.77
39793;BME280;26080;42.264;24.536;2023-11-21T14:26:19;98813.28;;;12.38;85.75
39793;BME280;26080;42.264;24.536;2023-11-21T14:28:45;98820.25;;;12.25;85.95
39793;BME280;26080;42.264;24.536;2023-11-21T14:31:13;98820.78;;;12.15;87.26
39793;BME280;26080;42.264;24.536;2023-11-21T14:33:39;98825.09;;;12.16;87.55
39793;BME280;26080;42.264;24.536;2023-11-21T14:36:06;98818.91;;;12.03;88.50
39793;BME280;26080;42.264;24.536;2023-11-21T14:38:35;98805.34;;;11.97;89.45
39793;BME280;26080;42.264;24.536;2023-11-21T14:41:02;98811.13;;;11.88;90.23
39793;BME280;26080;42.264;24.536;2023-11-21T14:43:28;98803.44;;;11.84;92.58
39793;BME280;26080;42.264;24.536;2023-11-21T14:45:55;98807.66;;;11.87;92.54
39793;BME280;26080;42.264;24.536;2023-11-21T14:48:21;98810.56;;;11.82;93.20
39793;BME280;26080;42.264;24.536;2023-11-21T14:51:05;98787.63;;;11.56;93.53
39793;BME280;26080;42.264;24.536;2023-11-21T14:53:31;98817.69;;;11.65;93.34
39793;BME280;26080;42.264;24.536;2023-11-21T14:56:19;98817.94;;;11.46;93.93
39793;BME280;26080;42.264;24.536;2023-11-21T14:58:52;98793.00;;;11.24;95.29
39793;BME280;26080;42.264;24.536;2023-11-21T15:01:19;98816.13;;;11.32;96.02
39793;BME280;26080;42.264;24.536;2023-11-21T15:03:56;98815.47;;;11.28;96.99
39793;BME280;26080;42.264;24.536;2023-11-21T15:06:21;98811.78;;;11.17;97.24
39793;BME280;26080;42.264;24.536;2023-11-21T15:08:56;98810.19;;;11.14;97.87
39793;BME280;26080;42.264;24.536;2023-11-21T15:11:35;98805.19;;;11.10;98.06
39793;BME280;26080;42.264;24.536;2023-11-21T15:14:02;98798.91;;;10.98;98.25
39793;BME280;26080;42.264;24.536;2023-11-21T15:16:35;98803.44;;;10.94;99.15
39793;BME280;26080;42.264;24.536;2023-11-21T15:19:06;98802.13;;;10.87;99.87
39793;BME280;26080;42.264;24.536;2023-11-21T15:21:32;98805.91;;;10.82;99.87
39793;BME280;26080;42.264;24.536;2023-11-21T15:23:58;98800.44;;;10.71;100.00
39793;BME280;26080;42.264;24.536;2023-11-21T15:26:23;98798.91;;;10.66;100.00
39793;BME280;26080;42.264;24.536;2023-11-21T15:28:49;98762.78;;;10.57;99.64
39793;BME280;26080;42.264;24.536;2023-11-21T15:31:14;98788.50;;;10.65;100.00
39793;BME280;26080;42.264;24.536;2023-11-21T15:33:42;98798.16;;;10.49;100.00
39793;BME280;26080;42.264;24.536;2023-11-21T15:36:08;98782.78;;;10.43;100.00
39793;BME280;26080;42.264;24.536;2023-11-21T15:38:36;98776.44;;;10.47;100.00
39793;BME280;26080;42.264;24.536;2023-11-21T15:41:03;98784.63;;;10.41;100.00
39793;BME280;26080;42.264;24.536;2023-11-21T15:43:28;98786.91;;;10.31;100.00
39793;BME280;26080;42.264;24.536;2023-11-21T15:45:54;98783.78;;;10.24;100.00
39793;BME280;26080;42.264;24.536;2023-11-21T15:48:21;98761.16;;;10.23;100.00
39793;BME280;26080;42.264;24.536;2023-11-21T15:50:46;98792.69;;;10.20;100.00
39793;BME280;26080;42.264;24.536;2023-11-21T15:53:13;98781.03;;;10.10;100.00
39793;BME280;26080;42.264;24.536;2023-11-21T15:55:38;98769.34;;;10.00;100.00
39793;BME280;26080;42.264;24.536;2023-11-21T15:58:08;98758.19;;;9.80;100.00
39793;BME280;26080;42.264;24.536;2023-11-21T16:00:33;98778.94;;;9.84;100.00
39793;BME280;26080;42.264;24.536;2023-11-21T16:02:59;98772.53;;;9.73;100.00
39793;BME280;26080;42.264;24.536;2023-11-21T16:05:24;98768.16;;;9.74;100.00
39793;BME280;26080;42.264;24.536;2023-11-21T16:07:51;98777.44;;;9.79;100.00
39793;BME280;26080;42.264;24.536;2023-11-21T16:10:17;98783.88;;;9.72;100.00
39793;BME280;26080;42.264;24.536;2023-11-21T16:12:44;98790.66;;;9.59;100.00
39793;BME280;26080;42.264;24.536;2023-11-21T16:15:10;98777.31;;;9.48;100.00
39793;BME280;26080;42.264;24.536;2023-11-21T16:17:37;98790.53;;;9.45;100.00
39793;BME280;26080;42.264;24.536;2023-11-21T16:20:04;98796.25;;;9.36;100.00
39793;BME280;26080;42.264;24.536;2023-11-21T16:22:38;98776.00;;;9.57;100.00
39793;BME280;26080;42.264;24.536;2023-11-21T16:25:08;98785.47;;;9.42;100.00
39793;BME280;26080;42.264;24.536;2023-11-21T16:27:40;98786.56;;;9.20;100.00
39793;BME280;26080;42.264;24.536;2023-11-21T16:30:07;98791.47;;;9.09;100.00
39793;BME280;26080;42.264;24.536;2023-11-21T16:32:42;98790.38;;;8.96;100.00
39793;BME280;26080;42.264;24.536;2023-11-21T16:35:08;98790.22;;;8.99;100.00
39793;BME280;26080;42.264;24.536;2023-11-21T16:37:35;98789.47;;;9.14;100.00
39793;BME280;26080;42.264;24.536;2023-11-21T16:40:01;98754.16;;;8.88;100.00
39793;BME280;26080;42.264;24.536;2023-11-21T16:42:26;98783.00;;;9.04;100.00
39793;BME280;26080;42.264;24.536;2023-11-21T16:44:55;98773.16;;;8.92;100.00